Buena Vista, Wisconsin
Current Conditions -  °F | °C
As of 1:15 PM on Monday 20 Oct 2014 (Local Time) from KSTE Reporting Station
Overcast Overcast  
Wind Chill: 50°   Ceiling: 4400
Heat Index: 50°   Visibility: 10mi
Dew Point: 41°   Wind: 5mph
Humidity: 70%   Direction: 360°N
Pressure: 29.91"   Gusts: NA
Location:  44.4117°N, 89.5378°W
Report Text: KSTE 201815Z AUTO 36004KT 10SM SCT029 SCT037 OVC044 10/05 A2991 RMK AO2 T01010048
Loading
Personal Weather Stations






























Interactive Weather Map
Tropical Storm Tracking
New forecast layout! Learn more

10-Day Weather Forecast

Advertisements
Track Severe Weather on mobile